Time;durP1;ratioP1;P1;durP2;ratioP2;P2;SDS_P1;SDS_P2;PMS_P1;PMS_P2;Temp;Humidity;BMP_temperature;BMP_pressure;BME280_temperature;BME280_humidity;BME280_pressure;Samples;Min_cycle;Max_cycle;Signal;HPM_P1;HPM_P2
2021/06/03 00:00:15;;;;;;;6.20;4.70;;;;;;;18.51;49.46;100586.19;8827967;33;20242;-75
2021/06/03 00:05:21;;;;;;;5.45;4.30;;;;;;;18.38;49.74;100576.84;8801729;33;20218;-75
2021/06/03 00:10:28;;;;;;;7.03;5.03;;;;;;;18.31;49.82;100574.78;8825845;33;20661;-75
2021/06/03 00:15:32;;;;;;;5.18;4.68;;;;;;;18.25;50.04;100575.47;8825081;33;20204;-75
2021/06/03 00:20:35;;;;;;;6.88;5.03;;;;;;;18.20;49.91;100574.28;8800886;33;20191;-75
2021/06/03 00:25:39;;;;;;;5.05;4.50;;;;;;;18.21;49.93;100567.81;8800279;33;20219;-75
2021/06/03 00:30:42;;;;;;;5.25;4.65;;;;;;;18.19;49.88;100561.72;8825078;33;20183;-75
2021/06/03 00:35:45;;;;;;;5.78;5.25;;;;;;;18.14;49.90;100562.22;8824695;33;20214;-75
2021/06/03 00:40:49;;;;;;;5.15;4.65;;;;;;;18.17;49.83;100561.88;8825617;33;20187;-75
2021/06/03 00:45:51;;;;;;;5.55;4.85;;;;;;;18.18;49.87;100560.00;8833406;28;20230;-71
2021/06/03 00:50:57;;;;;;;6.20;4.82;;;;;;;18.22;49.65;100570.38;8823573;33;20624;-72
2021/06/03 00:56:05;;;;;;;6.25;4.32;;;;;;;18.19;49.42;100561.72;8823155;33;20257;-71
2021/06/03 01:01:09;;;;;;;7.50;4.97;;;;;;;18.25;49.46;100566.47;8798428;33;20565;-72
2021/06/03 01:06:12;;;;;;;9.95;5.47;;;;;;;18.12;49.33;100570.53;8798295;33;20207;-71
2021/06/03 01:11:26;;;;;;;5.55;5.05;;;;;;;18.08;49.84;100571.06;8798791;33;20175;-71
2021/06/03 01:16:35;;;;;;;6.93;4.30;;;;;;;17.95;50.33;100571.53;8821498;33;20616;-71
2021/06/03 01:21:51;;;;;;;8.65;5.25;;;;;;;17.82;50.42;100573.88;8798352;33;20190;-71
2021/06/03 01:26:59;;;;;;;7.00;5.45;;;;;;;17.80;50.82;100579.50;8798341;33;20218;-70
2021/06/03 01:32:07;;;;;;;5.07;4.57;;;;;;;17.74;50.93;100582.84;8800062;33;20709;-71
2021/06/03 01:37:10;;;;;;;6.55;4.90;;;;;;;17.68;51.13;100583.53;8802710;33;20155;-71
2021/06/03 01:42:18;;;;;;;5.47;4.95;;;;;;;17.62;51.03;100586.91;8827707;33;20188;-70
2021/06/03 01:47:21;;;;;;;5.80;4.68;;;;;;;17.60;50.94;100588.94;8825942;33;20234;-71
2021/06/03 01:52:27;;;;;;;6.63;4.80;;;;;;;17.57;50.97;100578.41;8826132;33;20692;-71
2021/06/03 01:57:32;;;;;;;8.25;5.50;;;;;;;17.52;51.27;100580.75;8801970;33;20219;-72
2021/06/03 02:02:46;;;;;;;9.10;4.75;;;;;;;17.44;51.28;100574.31;8802561;33;20197;-71
2021/06/03 02:07:53;;;;;;;7.07;5.10;;;;;;;17.43;51.27;100575.31;8801862;33;20207;-71
2021/06/03 02:13:08;;;;;;;6.63;5.13;;;;;;;17.39;51.53;100583.97;8803134;33;20187;-72
2021/06/03 02:18:14;;;;;;;7.07;5.05;;;;;;;17.31;51.80;100583.94;8801662;33;20746;-70
2021/06/03 02:23:18;;;;;;;5.90;5.30;;;;;;;17.22;52.24;100572.16;8826784;33;20316;-71
2021/06/03 02:28:26;;;;;;;9.30;4.95;;;;;;;17.09;52.71;100582.63;8834320;33;20187;-71
2021/06/03 02:33:32;;;;;;;6.30;5.28;;;;;;;17.00;52.93;100577.16;8825612;33;20649;-71
2021/06/03 02:38:39;;;;;;;5.15;4.65;;;;;;;16.93;53.32;100580.66;8826285;33;20210;-71
2021/06/03 02:43:48;;;;;;;6.68;4.90;;;;;;;16.83;53.51;100580.75;8800691;33;20231;-71
2021/06/03 02:48:55;;;;;;;8.00;5.35;;;;;;;16.68;53.49;100566.94;8824615;33;20180;-72
2021/06/03 02:53:58;;;;;;;10.77;5.28;;;;;;;16.71;53.43;100584.78;8825586;33;20208;-71
2021/06/03 02:59:09;;;;;;;7.60;5.10;;;;;;;16.78;53.30;100575.84;8801066;33;20222;-71
2021/06/03 03:04:12;;;;;;;8.05;4.90;;;;;;;16.90;52.78;100575.56;8800618;33;20211;-71
2021/06/03 03:09:15;;;;;;;7.38;4.80;;;;;;;16.86;52.98;100582.31;8825128;33;20183;-71
2021/06/03 03:14:19;;;;;;;7.43;5.00;;;;;;;16.77;53.16;100578.69;8800360;33;20664;-71
2021/06/03 03:19:22;;;;;;;7.03;5.28;;;;;;;16.75;53.38;100584.28;8824079;33;20210;-71
2021/06/03 03:24:28;;;;;;;5.40;4.68;;;;;;;16.64;53.52;100583.69;8801166;33;20219;-71
2021/06/03 03:29:34;;;;;;;7.60;5.10;;;;;;;16.62;54.01;100593.84;8824878;33;20183;-71
2021/06/03 03:34:37;;;;;;;6.63;5.20;;;;;;;16.58;54.13;100599.59;8824717;33;20345;-71
2021/06/03 03:39:40;;;;;;;6.15;5.03;;;;;;;16.66;53.92;100606.94;8799936;33;20610;-71
2021/06/03 03:44:45;;;;;;;6.40;4.93;;;;;;;16.73;53.63;100613.44;8823886;33;20207;-71
2021/06/03 03:49:48;;;;;;;7.35;5.05;;;;;;;16.82;53.33;100611.63;8824662;33;20179;-71
2021/06/03 03:54:52;;;;;;;6.65;4.85;;;;;;;16.84;53.54;100614.16;8799200;33;20211;-70
2021/06/03 03:59:57;;;;;;;11.10;5.70;;;;;;;16.88;53.24;100615.56;8799618;33;20598;-71
2021/06/03 04:04:59;;;;;;;6.65;5.43;;;;;;;16.85;53.53;100624.03;8824006;33;20231;-71
2021/06/03 04:10:09;;;;;;;5.72;4.90;;;;;;;16.92;53.55;100627.78;8800258;33;20175;-71
2021/06/03 04:15:15;;;;;;;6.75;5.40;;;;;;;16.99;53.58;100634.28;8823881;33;20231;-71
2021/06/03 04:20:22;;;;;;;6.88;4.63;;;;;;;17.15;52.95;100639.00;8799422;33;20263;-71
2021/06/03 04:25:27;;;;;;;6.05;5.13;;;;;;;17.32;52.40;100643.47;8799174;33;20242;-71
2021/06/03 04:30:31;;;;;;;5.32;4.82;;;;;;;17.48;52.59;100638.13;8823833;33;20648;-71
2021/06/03 04:35:34;;;;;;;8.43;5.18;;;;;;;17.64;52.68;100641.94;8825602;33;20444;-71
2021/06/03 04:40:37;;;;;;;5.35;4.80;;;;;;;17.72;52.19;100646.53;8826037;33;20345;-71
2021/06/03 04:45:41;;;;;;;5.75;5.07;;;;;;;17.87;52.47;100648.44;8825245;33;20242;-71
2021/06/03 04:50:45;;;;;;;5.43;4.75;;;;;;;17.84;52.06;100650.66;8825110;33;20214;-71
2021/06/03 04:55:48;;;;;;;5.80;4.95;;;;;;;17.95;52.65;100658.50;8824550;33;20200;-71
2021/06/03 05:00:54;;;;;;;6.63;4.85;;;;;;;18.00;52.87;100658.03;8824936;33;20186;-72
2021/06/03 05:05:56;;;;;;;6.53;4.57;;;;;;;18.08;52.79;100668.94;8824212;33;20222;-71
2021/06/03 05:10:59;;;;;;;7.95;5.35;;;;;;;18.27;52.37;100676.78;8830057;33;20814;-71
2021/06/03 05:16:03;;;;;;;5.75;4.63;;;;;;;18.52;51.37;100674.06;8829468;33;20711;-72
2021/06/03 05:21:07;;;;;;;5.22;4.70;;;;;;;18.59;50.99;100677.81;8830301;33;20186;-71
2021/06/03 05:26:09;;;;;;;14.38;6.32;;;;;;;18.68;51.43;100673.25;8829334;33;20204;-71
2021/06/03 05:31:13;;;;;;;6.75;5.38;;;;;;;18.78;51.37;100679.38;8829841;33;20619;-71
2021/06/03 05:36:16;;;;;;;4.95;4.55;;;;;;;18.84;51.12;100680.56;8829290;33;20352;-71
2021/06/03 05:41:18;;;;;;;6.55;5.20;;;;;;;18.82;51.47;100679.91;8829387;33;20197;-71
2021/06/03 05:46:22;;;;;;;7.00;4.72;;;;;;;19.02;50.86;100690.22;8828894;33;20215;-71
2021/06/03 05:51:25;;;;;;;6.25;5.07;;;;;;;19.41;50.93;100697.63;8829550;33;20180;-71
2021/06/03 05:56:28;;;;;;;5.28;4.72;;;;;;;19.54;50.57;100705.25;8844375;33;20231;-72
2021/06/03 06:01:34;;;;;;;6.85;4.90;;;;;;;19.86;50.42;100711.66;8829489;33;20179;-72
2021/06/03 06:06:37;;;;;;;8.00;4.93;;;;;;;19.86;49.83;100728.84;8828624;33;20261;-71
2021/06/03 06:11:39;;;;;;;6.25;4.93;;;;;;;19.80;50.41;100726.84;8828795;33;20191;-73
2021/06/03 06:16:43;;;;;;;5.05;4.35;;;;;;;19.86;50.65;100728.00;8827866;33;20203;-71
2021/06/03 06:21:46;;;;;;;9.25;4.60;;;;;;;20.01;50.46;100734.41;8828691;33;20191;-71
2021/06/03 06:26:49;;;;;;;7.35;5.40;;;;;;;20.46;50.11;100732.81;8827900;33;20203;-71
2021/06/03 06:31:53;;;;;;;6.90;5.40;;;;;;;20.85;48.67;100741.91;8828361;33;20183;-71
2021/06/03 06:36:55;;;;;;;5.95;5.32;;;;;;;21.08;48.65;100742.75;8828685;33;20211;-71
2021/06/03 06:41:58;;;;;;;6.88;5.18;;;;;;;21.18;48.36;100739.78;8827999;33;20184;-71
2021/06/03 06:47:03;;;;;;;6.50;5.88;;;;;;;21.34;48.32;100741.50;8823511;27;20235;-75
2021/06/03 06:52:06;;;;;;;6.25;5.40;;;;;;;21.48;48.92;100739.81;8768090;33;20172;-75
2021/06/03 06:57:09;;;;;;;6.50;4.80;;;;;;;21.58;48.12;100737.63;8767286;33;20219;-74
2021/06/03 07:02:13;;;;;;;6.90;5.15;;;;;;;21.59;48.89;100740.19;8767687;33;20176;-74
2021/06/03 07:07:16;;;;;;;6.07;5.07;;;;;;;21.88;47.75;100738.50;8768205;33;20204;-74
2021/06/03 07:12:19;;;;;;;5.07;4.57;;;;;;;22.16;47.01;100737.78;8768478;33;20207;-74
2021/06/03 07:17:23;;;;;;;6.95;5.10;;;;;;;22.76;46.30;100742.03;8767656;33;20205;-73
2021/06/03 07:22:26;;;;;;;6.43;4.90;;;;;;;23.17;44.96;100744.97;8767623;33;20664;-74
2021/06/03 07:27:29;;;;;;;6.28;4.80;;;;;;;22.82;46.68;100751.38;8767121;33;20204;-73
2021/06/03 07:32:33;;;;;;;7.68;5.20;;;;;;;23.01;47.09;100750.72;8767282;33;20300;-73
2021/06/03 07:37:37;;;;;;;6.55;4.60;;;;;;;23.34;46.21;100752.88;8767405;33;20712;-73
2021/06/03 07:42:40;;;;;;;6.40;5.10;;;;;;;23.28;45.32;100756.44;8767455;33;20180;-75
2021/06/03 07:47:44;;;;;;;5.75;5.18;;;;;;;23.53;45.32;100757.69;8742756;33;20627;-73
2021/06/03 07:52:46;;;;;;;5.45;4.95;;;;;;;24.14;44.96;100748.75;8767244;33;20188;-74
2021/06/03 07:57:53;;;;;;;5.20;4.47;;;;;;;24.70;43.39;100755.88;8766668;33;20196;-74
2021/06/03 08:02:58;;;;;;;4.68;4.28;;;;;;;25.23;42.33;100752.34;8767042;33;20823;-74
2021/06/03 08:08:01;;;;;;;4.53;4.13;;;;;;;24.87;42.36;100756.34;8767043;33;20196;-75
2021/06/03 08:13:04;;;;;;;4.82;4.43;;;;;;;25.21;42.16;100751.75;8766602;33;20180;-74
2021/06/03 08:18:09;;;;;;;5.82;5.18;;;;;;;26.35;42.26;100748.47;8741982;33;20227;-74
2021/06/03 08:23:15;;;;;;;5.30;4.80;;;;;;;26.28;42.01;100739.44;8766652;33;20173;-74
2021/06/03 08:28:18;;;;;;;6.40;4.35;;;;;;;27.00;41.73;100747.44;8742007;33;20220;-73
2021/06/03 08:33:22;;;;;;;4.88;4.15;;;;;;;26.93;39.45;100747.50;8767152;33;20211;-74
2021/06/03 08:38:26;;;;;;;4.72;4.32;;;;;;;26.86;39.08;100753.06;8766689;33;20620;-74
2021/06/03 08:43:32;;;;;;;5.15;4.40;;;;;;;27.05;39.50;100750.38;8766663;33;20180;-75
2021/06/03 08:48:36;;;;;;;5.38;4.28;;;;;;;27.08;38.78;100749.94;8766487;33;20215;-74
2021/06/03 08:53:38;;;;;;;5.28;3.83;;;;;;;27.47;38.47;100745.97;8742599;33;20195;-74
2021/06/03 08:58:45;;;;;;;5.50;4.15;;;;;;;27.56;38.60;100752.03;8767507;33;20204;-74
2021/06/03 09:03:50;;;;;;;8.25;4.88;;;;;;;27.56;38.78;100747.38;8766810;33;20192;-75
2021/06/03 09:08:57;;;;;;;5.45;4.40;;;;;;;27.78;39.10;100757.94;8766640;33;20176;-74
2021/06/03 09:14:04;;;;;;;5.18;4.03;;;;;;;27.47;38.90;100751.50;8746989;33;20195;-75
2021/06/03 09:19:10;;;;;;;4.50;3.67;;;;;;;27.72;38.44;100748.66;8768059;33;20204;-75
2021/06/03 09:24:16;;;;;;;4.35;3.85;;;;;;;28.01;37.37;100754.53;8766660;33;20243;-75
2021/06/03 09:29:23;;;;;;;4.68;3.15;;;;;;;27.89;37.98;100756.34;8766582;33;20208;-74
2021/06/03 09:34:27;;;;;;;4.50;3.53;;;;;;;28.05;38.12;100762.09;8765350;33;20208;-75
2021/06/03 09:39:31;;;;;;;3.80;3.45;;;;;;;28.70;36.67;100763.41;8766516;33;20204;-75
2021/06/03 09:44:38;;;;;;;3.72;3.42;;;;;;;28.29;36.91;100762.25;8767124;33;20208;-75
2021/06/03 09:50:00;;;;;;;3.70;3.38;;;;;;;27.63;37.73;100760.25;8765067;33;20198;-75
2021/06/03 09:55:09;;;;;;;5.30;3.00;;;;;;;27.29;38.99;100754.19;8743846;33;20681;-75
2021/06/03 10:00:17;;;;;;;3.85;3.25;;;;;;;27.16;38.81;100763.44;8769517;33;20208;-73
2021/06/03 10:05:23;;;;;;;3.30;2.92;;;;;;;27.14;38.31;100766.41;8745413;33;20674;-73
2021/06/03 10:10:28;;;;;;;3.13;2.92;;;;;;;27.04;39.64;100749.53;8744914;33;20180;-73
2021/06/03 10:15:36;;;;;;;3.20;2.90;;;;;;;27.48;38.32;100742.16;8768945;33;20200;-75
2021/06/03 10:20:43;;;;;;;4.03;3.20;;;;;;;27.71;38.12;100746.16;8769266;33;20204;-75
2021/06/03 10:25:50;;;;;;;3.92;3.00;;;;;;;28.01;37.97;100747.09;8744873;33;20614;-73
2021/06/03 10:30:57;;;;;;;2.90;2.58;;;;;;;28.22;37.31;100743.00;8769284;33;20195;-75
2021/06/03 10:36:06;;;;;;;3.90;3.50;;;;;;;29.25;36.65;100742.97;8768493;33;20201;-75
2021/06/03 10:41:12;;;;;;;3.22;2.92;;;;;;;29.81;34.70;100739.59;8768255;33;20214;-75
2021/06/03 10:46:14;;;;;;;3.10;2.80;;;;;;;29.56;34.22;100739.81;8768486;33;20214;-75
2021/06/03 10:51:18;;;;;;;3.47;2.58;;;;;;;29.14;35.60;100753.78;8744528;33;20597;-75
2021/06/03 10:56:25;;;;;;;3.72;2.65;;;;;;;29.14;35.12;100733.56;8768596;33;20211;-76
2021/06/03 11:01:30;;;;;;;3.38;2.70;;;;;;;29.02;35.66;100740.97;8768794;33;20203;-75
2021/06/03 11:06:44;;;;;;;3.47;2.80;;;;;;;29.23;35.83;100739.59;8767544;33;20211;-75
2021/06/03 11:11:47;;;;;;;2.90;2.60;;;;;;;30.01;34.31;100730.84;8768079;33;20168;-76
2021/06/03 11:16:52;;;;;;;3.22;2.63;;;;;;;30.93;33.97;100728.16;8767575;33;20598;-75
2021/06/03 11:22:08;;;;;;;2.50;2.30;;;;;;;31.05;32.94;100734.47;8767670;33;20184;-75
2021/06/03 11:27:14;;;;;;;3.63;2.67;;;;;;;30.57;34.10;100727.50;8766801;33;20538;-76
2021/06/03 11:32:20;;;;;;;3.83;2.30;;;;;;;29.21;34.52;100727.91;8767631;33;20184;-76
2021/06/03 11:37:27;;;;;;;4.68;2.95;;;;;;;29.91;35.20;100707.66;8766684;33;20196;-75
2021/06/03 11:42:38;;;;;;;3.13;2.70;;;;;;;29.61;35.23;100716.13;8767364;33;20172;-75
2021/06/03 11:48:19;;;;;;;2.60;2.40;;;;;;;29.44;35.85;100707.72;8766391;33;20262;-75
2021/06/03 11:53:27;;;;;;;3.92;2.85;;;;;;;29.18;36.40;100718.16;8742544;33;20602;-75
2021/06/03 11:58:33;;;;;;;3.67;3.38;;;;;;;29.27;37.09;100713.16;8766122;33;20696;-75
2021/06/03 12:03:39;;;;;;;3.67;2.72;;;;;;;27.89;37.75;100706.66;8765936;33;20198;-74
2021/06/03 12:08:50;;;;;;;3.70;3.38;;;;;;;27.30;37.09;100707.06;8765098;33;20223;-74
2021/06/03 12:14:04;;;;;;;3.38;3.00;;;;;;;26.77;39.52;100718.56;8765875;33;20691;-75
2021/06/03 12:19:11;;;;;;;3.97;2.28;;;;;;;25.10;38.14;100755.97;8765501;33;20196;-74
2021/06/03 12:24:15;;;;;;;5.28;2.58;;;;;;;23.47;41.26;100752.16;8740541;33;20212;-74
2021/06/03 12:29:26;;;;;;;2.97;2.22;;;;;;;23.88;39.48;100765.91;8765818;33;20195;-74
2021/06/03 12:34:32;;;;;;;5.45;2.83;;;;;;;23.43;42.21;100809.28;8765360;33;20742;-73
2021/06/03 12:39:50;;;;;;;3.88;2.35;;;;;;;21.61;46.73;100776.38;8765234;33;20219;-73
2021/06/03 12:44:58;;;;;;;3.65;2.55;;;;;;;21.57;46.16;100794.19;8781559;28;20637;-72
2021/06/03 12:50:12;;;;;;;4.75;2.30;;;;;;;21.35;50.01;100816.97;8782000;33;20649;-71
2021/06/03 12:55:19;;;;;;;3.38;2.50;;;;;;;19.50;66.15;100833.81;8766097;33;20208;-70
2021/06/03 13:00:23;;;;;;;4.20;2.85;;;;;;;18.25;75.22;100830.22;8766845;33;20196;-70
2021/06/03 13:05:26;;;;;;;5.90;3.10;;;;;;;17.69;76.12;100808.00;8741927;33;20211;-71
2021/06/03 13:10:30;;;;;;;3.88;3.10;;;;;;;17.34;76.95;100789.94;8766347;33;20232;-72
2021/06/03 13:15:40;;;;;;;6.03;3.03;;;;;;;17.28;77.56;100790.56;8765809;33;20610;-70
2021/06/03 13:20:46;;;;;;;6.53;3.55;;;;;;;17.29;79.71;100786.84;8766161;33;20743;-70
2021/06/03 13:25:54;;;;;;;4.90;3.10;;;;;;;17.58;80.45;100795.56;8765616;33;20612;-70
2021/06/03 13:31:01;;;;;;;3.72;3.22;;;;;;;17.88;81.11;100777.88;8770719;33;20176;-70
2021/06/03 13:36:07;;;;;;;7.13;3.58;;;;;;;18.21;81.42;100790.78;8770611;33;20687;-70
2021/06/03 13:41:13;;;;;;;3.90;3.35;;;;;;;18.66;81.89;100800.44;8771021;33;20196;-70
2021/06/03 13:46:16;;;;;;;7.07;3.83;;;;;;;18.32;78.36;100817.66;8770506;33;20223;-71
2021/06/03 13:51:21;;;;;;;4.53;3.70;;;;;;;17.92;77.74;100816.44;8770784;33;20267;-71
2021/06/03 13:56:26;;;;;;;4.95;4.20;;;;;;;18.06;78.43;100817.72;8770348;33;20230;-70
2021/06/03 14:01:32;;;;;;;5.82;3.75;;;;;;;18.24;79.82;100828.50;8770635;33;20208;-70
2021/06/03 14:06:39;;;;;;;4.60;3.88;;;;;;;17.78;82.74;100828.78;8770122;33;20203;-70
2021/06/03 14:11:50;;;;;;;5.93;4.20;;;;;;;17.80;83.70;100821.31;8770204;33;20168;-72
2021/06/03 14:17:00;;;;;;;6.13;4.35;;;;;;;17.76;82.30;100816.34;8769709;33;20204;-71
2021/06/03 14:22:17;;;;;;;4.88;4.20;;;;;;;17.46;83.36;100834.84;8769820;33;20227;-70
2021/06/03 14:27:30;;;;;;;7.07;4.85;;;;;;;17.93;85.18;100832.56;8770060;33;20708;-70
2021/06/03 14:32:35;;;;;;;7.40;5.70;;;;;;;18.28;85.58;100841.63;8769512;33;20189;-70
2021/06/03 14:37:38;;;;;;;9.02;5.95;;;;;;;17.98;84.89;100836.72;8769128;33;20200;-71
2021/06/03 14:42:43;;;;;;;7.55;5.97;;;;;;;18.10;85.59;100841.72;8769295;33;20220;-71
2021/06/03 14:47:47;;;;;;;7.75;6.65;;;;;;;17.92;84.77;100857.22;8768751;33;20223;-71
2021/06/03 14:52:52;;;;;;;8.63;7.07;;;;;;;17.95;86.15;100875.91;8769218;33;20184;-71
2021/06/03 14:57:59;;;;;;;10.30;7.00;;;;;;;17.83;85.65;100867.19;8768584;33;20195;-71
2021/06/03 15:03:03;;;;;;;8.32;5.97;;;;;;;17.60;85.53;100853.25;8768894;33;20208;-71
2021/06/03 15:08:08;;;;;;;7.60;5.82;;;;;;;17.53;85.70;100862.22;8768648;33;20211;-71
2021/06/03 15:13:18;;;;;;;7.78;6.22;;;;;;;17.52;86.13;100855.91;8768565;33;20178;-71
2021/06/03 15:18:21;;;;;;;6.88;5.57;;;;;;;17.27;85.09;100868.44;8767990;33;20204;-71
2021/06/03 15:23:27;;;;;;;8.10;5.97;;;;;;;17.29;85.70;100861.00;8768545;33;20169;-71
2021/06/03 15:28:32;;;;;;;8.43;6.22;;;;;;;17.10;86.17;100851.13;8768831;33;20681;-71
2021/06/03 15:33:35;;;;;;;8.57;6.50;;;;;;;17.11;85.88;100851.97;8768829;33;20187;-71
2021/06/03 15:38:39;;;;;;;7.72;6.57;;;;;;;17.03;86.36;100844.63;8768050;33;20207;-71
2021/06/03 15:43:43;;;;;;;9.57;6.80;;;;;;;17.06;86.21;100835.31;8768055;33;20258;-71
2021/06/03 15:48:48;;;;;;;12.35;7.18;;;;;;;17.12;85.49;100826.56;8767510;33;20196;-71
2021/06/03 15:53:50;;;;;;;10.02;7.70;;;;;;;17.03;86.03;100834.63;8767763;33;20586;-71
2021/06/03 15:58:54;;;;;;;9.77;7.05;;;;;;;17.29;86.13;100838.44;8767639;33;20627;-71
2021/06/03 16:03:57;;;;;;;10.35;7.65;;;;;;;17.15;85.42;100827.13;8767395;33;20315;-71
2021/06/03 16:08:59;;;;;;;10.52;7.78;;;;;;;17.20;85.79;100829.38;8767348;33;20200;-71
2021/06/03 16:14:04;;;;;;;9.65;7.10;;;;;;;17.39;85.78;100812.91;8766872;33;20195;-71
2021/06/03 16:19:06;;;;;;;11.30;7.65;;;;;;;17.60;85.94;100807.09;8766922;33;20214;-71
2021/06/03 16:24:10;;;;;;;8.15;7.22;;;;;;;17.84;85.80;100790.06;8767439;33;20188;-71
2021/06/03 16:29:14;;;;;;;10.15;7.95;;;;;;;18.01;85.64;100774.72;8767144;33;20183;-71
2021/06/03 16:34:17;;;;;;;12.32;8.23;;;;;;;18.26;85.50;100769.38;8766587;33;20191;-71
2021/06/03 16:39:20;;;;;;;8.80;7.75;;;;;;;18.28;84.80;100779.06;8767399;33;20502;-71
2021/06/03 16:44:24;;;;;;;10.85;7.53;;;;;;;18.24;84.10;100774.13;8741975;33;20220;-71
2021/06/03 16:49:27;;;;;;;9.10;7.68;;;;;;;18.19;83.71;100773.78;8742381;33;20199;-71
2021/06/03 16:54:31;;;;;;;8.93;6.82;;;;;;;18.17;83.61;100787.53;8743165;33;20216;-71
2021/06/03 16:59:35;;;;;;;8.38;7.28;;;;;;;17.94;82.40;100779.09;8766298;33;20207;-71
2021/06/03 17:04:37;;;;;;;10.63;8.40;;;;;;;18.14;83.77;100787.88;8769467;33;20203;-71
2021/06/03 17:09:40;;;;;;;11.48;8.88;;;;;;;18.21;83.21;100788.94;8771581;33;20271;-71
2021/06/03 17:14:44;;;;;;;8.73;7.45;;;;;;;18.46;84.22;100798.00;8770850;33;20208;-71
2021/06/03 17:19:47;;;;;;;9.20;7.60;;;;;;;18.35;84.49;100806.47;8772294;33;20215;-71
2021/06/03 17:24:49;;;;;;;10.95;8.30;;;;;;;18.30;84.01;100771.59;8770776;33;20212;-71
2021/06/03 17:29:53;;;;;;;10.23;8.20;;;;;;;18.35;83.73;100779.28;8771110;33;20180;-71
2021/06/03 17:34:57;;;;;;;8.82;7.53;;;;;;;18.25;83.88;100773.13;8770742;33;20208;-71
2021/06/03 17:40:00;;;;;;;9.63;7.57;;;;;;;18.21;83.30;100771.72;8770534;33;20211;-71
2021/06/03 17:45:06;;;;;;;10.07;7.20;;;;;;;18.20;82.97;100765.44;8770239;33;20266;-71
2021/06/03 17:50:15;;;;;;;9.60;8.07;;;;;;;18.05;81.53;100772.56;8746284;33;20199;-71
2021/06/03 17:55:20;;;;;;;8.85;7.68;;;;;;;17.97;82.16;100775.19;8770151;33;20212;-71
2021/06/03 18:00:28;;;;;;;7.88;7.05;;;;;;;17.88;81.79;100786.03;8770461;33;20207;-71
2021/06/03 18:05:34;;;;;;;8.05;7.03;;;;;;;17.91;82.28;100790.28;8770043;33;20215;-71
2021/06/03 18:10:40;;;;;;;9.30;7.28;;;;;;;18.08;82.78;100808.41;8770294;33;20180;-71
2021/06/03 18:15:47;;;;;;;9.25;7.60;;;;;;;18.05;83.12;100800.59;8745048;33;20709;-71
2021/06/03 18:20:51;;;;;;;10.57;7.07;;;;;;;18.00;82.92;100805.66;8769547;33;20220;-71
2021/06/03 18:25:54;;;;;;;9.18;7.07;;;;;;;18.03;83.72;100804.47;8770315;33;20285;-71
2021/06/03 18:30:58;;;;;;;9.70;6.03;;;;;;;17.94;83.43;100806.28;8745895;33;20184;-71
2021/06/03 18:36:01;;;;;;;7.15;5.85;;;;;;;17.83;83.11;100817.44;8745156;33;20223;-71
2021/06/03 18:41:04;;;;;;;8.18;6.68;;;;;;;17.68;82.83;100818.00;8752645;33;20214;-71
2021/06/03 18:46:09;;;;;;;6.70;5.68;;;;;;;17.63;82.18;100812.19;8816323;28;20219;-73
2021/06/03 18:51:12;;;;;;;6.80;5.97;;;;;;;17.55;82.68;100827.59;8887249;33;20191;-72
2021/06/03 18:56:15;;;;;;;6.72;5.82;;;;;;;17.54;82.85;100823.19;8886902;33;20206;-71
2021/06/03 19:01:20;;;;;;;10.60;6.40;;;;;;;17.36;83.19;100826.81;8887243;33;20199;-73
2021/06/03 19:06:23;;;;;;;8.77;6.63;;;;;;;17.29;83.71;100839.28;8886941;33;20751;-71
2021/06/03 19:11:25;;;;;;;7.25;5.93;;;;;;;17.32;84.24;100835.41;8887162;33;20170;-71
2021/06/03 19:16:30;;;;;;;8.38;6.68;;;;;;;17.19;84.90;100835.81;8886483;33;20202;-72
2021/06/03 19:21:32;;;;;;;9.00;7.00;;;;;;;17.15;85.04;100840.69;8887403;33;20202;-71
2021/06/03 19:26:36;;;;;;;9.45;7.05;;;;;;;17.16;84.68;100847.81;8885258;33;20209;-70
2021/06/03 19:31:41;;;;;;;11.73;8.52;;;;;;;16.97;84.39;100854.22;8887353;33;20190;-71
2021/06/03 19:36:44;;;;;;;9.05;8.05;;;;;;;16.61;84.54;100869.63;8886619;33;20202;-72
2021/06/03 19:41:47;;;;;;;11.38;8.93;;;;;;;16.56;84.63;100882.78;8886340;33;20206;-71
2021/06/03 19:46:51;;;;;;;11.88;7.68;;;;;;;16.54;85.02;100901.09;8885637;33;20615;-72
2021/06/03 19:51:54;;;;;;;12.77;8.38;;;;;;;16.52;85.76;100903.94;8885783;33;20639;-71
2021/06/03 19:56:56;;;;;;;12.52;9.27;;;;;;;16.63;86.25;100902.03;8886133;33;20202;-72
2021/06/03 20:02:00;;;;;;;10.65;9.20;;;;;;;16.35;85.99;100918.28;8885917;33;20218;-72
2021/06/03 20:07:04;;;;;;;11.75;9.10;;;;;;;16.48;86.73;100921.53;8885538;33;20305;-71
2021/06/03 20:12:08;;;;;;;12.95;8.90;;;;;;;16.58;87.07;100916.03;8885678;33;20178;-70
2021/06/03 20:17:12;;;;;;;13.68;10.00;;;;;;;16.59;86.45;100912.31;8885689;33;20702;-71
2021/06/03 20:22:15;;;;;;;14.40;10.70;;;;;;;16.66;86.52;100904.44;8885376;33;20199;-72
2021/06/03 20:27:18;;;;;;;14.82;10.48;;;;;;;16.74;86.89;100912.66;8885030;33;20194;-72
2021/06/03 20:32:22;;;;;;;13.13;9.40;;;;;;;16.71;86.69;100923.81;8885380;33;20179;-72
2021/06/03 20:37:24;;;;;;;15.38;12.10;;;;;;;16.70;86.74;100917.56;8884793;33;20213;-72
2021/06/03 20:42:30;;;;;;;20.90;12.68;;;;;;;16.79;87.10;100915.78;8885118;33;20190;-70
2021/06/03 20:47:35;;;;;;;18.42;12.00;;;;;;;16.71;87.63;100912.97;8884662;33;20252;-71
2021/06/03 20:52:37;;;;;;;18.52;12.30;;;;;;;16.86;87.04;100919.56;8885187;33;20189;-71
2021/06/03 20:57:40;;;;;;;25.70;14.10;;;;;;;16.81;87.17;100916.47;8884913;33;20613;-72
2021/06/03 21:02:45;;;;;;;16.75;12.40;;;;;;;16.77;88.32;100920.50;8894540;33;20206;-72
2021/06/03 21:07:48;;;;;;;19.88;13.73;;;;;;;16.72;88.62;100920.94;8885071;33;20298;-71
2021/06/03 21:12:51;;;;;;;23.38;14.00;;;;;;;16.64;88.15;100937.13;8884640;33;20774;-71
2021/06/03 21:17:56;;;;;;;23.58;15.73;;;;;;;16.71;88.48;100930.09;8859340;33;20218;-71
2021/06/03 21:22:58;;;;;;;23.95;16.33;;;;;;;16.65;87.72;100933.44;8887378;33;20683;-71
2021/06/03 21:28:02;;;;;;;23.02;15.85;;;;;;;16.70;87.85;100925.69;8885530;33;20211;-71
2021/06/03 21:33:09;;;;;;;22.98;16.10;;;;;;;16.69;87.60;100923.13;8885555;33;20182;-71
2021/06/03 21:38:13;;;;;;;25.75;17.40;;;;;;;16.64;87.46;100926.28;8885563;33;20206;-70
2021/06/03 21:43:17;;;;;;;25.17;17.60;;;;;;;16.58;87.65;100919.59;8885393;33;20195;-70
2021/06/03 21:48:27;;;;;;;25.08;17.33;;;;;;;16.57;87.68;100919.75;8860985;33;20214;-72
2021/06/03 21:53:33;;;;;;;22.98;15.77;;;;;;;16.55;87.32;100916.34;8865641;33;20286;-72
2021/06/03 21:58:43;;;;;;;26.63;17.15;;;;;;;16.57;87.52;100926.03;8888857;33;20214;-73
2021/06/03 22:03:47;;;;;;;25.98;16.50;;;;;;;16.45;87.65;100929.94;8888650;33;20587;-71
2021/06/03 22:08:50;;;;;;;25.67;17.25;;;;;;;16.38;87.35;100925.28;8863342;33;20302;-72
2021/06/03 22:13:58;;;;;;;23.40;15.60;;;;;;;16.30;87.53;100920.59;8888637;33;20159;-71
2021/06/03 22:19:05;;;;;;;22.35;16.15;;;;;;;16.34;87.14;100922.00;8863174;33;20214;-72
2021/06/03 22:24:10;;;;;;;29.83;17.27;;;;;;;16.39;87.21;100926.97;8887889;33;20209;-72
2021/06/03 22:29:13;;;;;;;26.63;18.45;;;;;;;16.45;87.34;100905.53;8887733;33;20199;-71
2021/06/03 22:34:20;;;;;;;28.88;18.83;;;;;;;16.41;87.23;100914.13;8862549;33;20239;-71
2021/06/03 22:39:23;;;;;;;23.67;16.85;;;;;;;16.32;87.02;100900.47;8863190;33;20221;-72
2021/06/03 22:44:27;;;;;;;21.25;16.02;;;;;;;16.10;86.66;100888.13;8886347;33;20214;-72
2021/06/03 22:49:31;;;;;;;23.23;16.88;;;;;;;15.91;87.18;100883.63;8887546;33;20224;-72
2021/06/03 22:54:34;;;;;;;21.20;14.80;;;;;;;15.96;87.00;100893.13;8887135;33;20667;-72
2021/06/03 22:59:37;;;;;;;21.88;14.95;;;;;;;16.08;87.33;100902.81;8862180;33;20210;-71
2021/06/03 23:04:42;;;;;;;20.48;14.60;;;;;;;16.04;87.26;100902.22;8886872;33;20210;-72
2021/06/03 23:09:45;;;;;;;21.13;14.82;;;;;;;16.03;86.88;100905.09;8888319;33;20177;-72
2021/06/03 23:14:48;;;;;;;20.63;15.80;;;;;;;15.97;86.79;100908.41;8886653;33;20679;-72
2021/06/03 23:19:52;;;;;;;23.73;14.55;;;;;;;15.95;86.69;100911.25;8861913;33;20187;-73
2021/06/03 23:24:55;;;;;;;19.90;14.82;;;;;;;15.93;86.91;100911.41;8886253;33;20205;-73
2021/06/03 23:29:57;;;;;;;23.80;15.73;;;;;;;15.99;87.01;100907.25;8886966;33;20194;-71